createdAt,value
2023-04-18T00:00:47.879Z,19530.9238
2023-04-18T00:01:50.205Z,19527.3086
2023-04-18T00:02:50.849Z,19525.3086
2023-04-18T00:03:52.283Z,19525.0762
2023-04-18T00:04:53.723Z,19522.2305
2023-04-18T00:05:54.936Z,19525.2305
2023-04-18T00:06:56.430Z,19523.9238
2023-04-18T00:07:57.795Z,19522.2305
2023-04-18T00:08:59.335Z,19520.7695
2023-04-18T00:10:00.711Z,19520.6152
2023-04-18T00:11:02.164Z,19523.7695
2023-04-18T00:12:03.510Z,19521.5391
2023-04-18T00:13:05.013Z,19520.3848
2023-04-18T00:14:07.169Z,19519.0000
2023-04-18T00:15:07.915Z,19521.2305
2023-04-18T00:16:09.299Z,19520.0000
2023-04-18T00:17:10.849Z,19526.0000
2023-04-18T00:18:12.115Z,19525.6914
2023-04-18T00:19:13.519Z,19522.4609
2023-04-18T00:20:14.959Z,19520.2305
2023-04-18T00:21:16.410Z,19523.3848
2023-04-18T00:22:17.741Z,19525.0000
2023-04-18T00:23:19.241Z,19522.6914
2023-04-18T00:24:20.556Z,19523.7695
2023-04-18T00:25:21.992Z,19525.2305
2023-04-18T00:26:23.622Z,19529.8457
2023-04-18T00:27:24.927Z,19525.0000
2023-04-18T00:28:26.341Z,19526.9238
2023-04-18T00:29:27.829Z,19524.3848
2023-04-18T00:30:29.237Z,19526.0000
2023-04-18T00:31:30.698Z,19524.9238
2023-04-18T00:32:31.999Z,19522.7695
2023-04-18T00:33:33.495Z,19519.6152
2023-04-18T00:34:34.844Z,19522.2305
2023-04-18T00:35:36.789Z,19525.6152
2023-04-18T00:36:37.812Z,19522.0762
2023-04-18T00:37:39.157Z,19521.5391
2023-04-18T00:38:40.543Z,19518.7695
2023-04-18T00:39:42.086Z,19522.0000
2023-04-18T00:40:43.455Z,19521.6152
2023-04-18T00:41:44.916Z,19523.1543
2023-04-18T00:42:46.252Z,19527.6152
2023-04-18T00:43:47.719Z,19527.7695
2023-04-18T00:44:49.098Z,19526.9238
2023-04-18T00:45:50.616Z,19524.0762
2023-04-18T00:46:52.017Z,19524.8457
2023-04-18T00:47:53.462Z,19523.7695
2023-04-18T00:48:54.815Z,19523.0762
2023-04-18T00:49:56.288Z,19523.3848
2023-04-18T00:50:57.762Z,19523.5391
2023-04-18T00:51:59.211Z,19525.3086
2023-04-18T00:53:00.555Z,19519.4609
2023-04-18T00:54:01.979Z,19525.3086
2023-04-18T00:55:03.364Z,19523.9238
2023-04-18T00:56:05.276Z,19520.4609
2023-04-18T00:57:06.276Z,19518.6914
2023-04-18T00:58:07.673Z,19520.2305
2023-04-18T00:59:09.151Z,19523.0762
2023-04-18T01:00:10.527Z,19526.9238
2023-04-18T01:01:12.044Z,19525.8457
2023-04-18T01:02:13.452Z,19522.1543
2023-04-18T01:03:14.959Z,19525.9238
2023-04-18T01:04:17.345Z,19519.7695
2023-04-18T01:05:17.656Z,19526.8457
2023-04-18T01:06:19.232Z,19530.0762
2023-04-18T01:07:20.516Z,19526.3848
2023-04-18T01:08:21.909Z,19524.3086
2023-04-18T01:09:23.359Z,19521.6152
2023-04-18T01:10:24.776Z,19524.3848
2023-04-18T01:11:26.289Z,19520.5391
2023-04-18T01:12:27.678Z,19520.0000
2023-04-18T01:13:29.100Z,19528.9238
2023-04-18T01:14:30.481Z,19527.6914
2023-04-18T01:15:31.991Z,19524.8457
2023-04-18T01:16:33.397Z,19527.7695
2023-04-18T01:17:34.873Z,19525.3086
2023-04-18T01:18:36.273Z,19529.7695
2023-04-18T01:19:37.646Z,19529.5391
2023-04-18T01:20:39.007Z,19529.8457
2023-04-18T01:21:40.557Z,19531.0000
2023-04-18T01:22:41.885Z,19529.6152
2023-04-18T01:23:43.331Z,19529.7695
2023-04-18T01:24:44.763Z,19530.8457
2023-04-18T01:25:46.202Z,19523.1543
2023-04-18T01:26:47.700Z,19525.6914
2023-04-18T01:27:49.164Z,19524.8457
2023-04-18T01:28:50.491Z,19528.0762
2023-04-18T01:29:51.991Z,19527.6152
2023-04-18T01:30:53.370Z,19528.3086
2023-04-18T01:31:55.034Z,19526.3848
2023-04-18T01:32:56.393Z,19528.3848
2023-04-18T01:33:57.844Z,19526.7695
2023-04-18T01:34:59.206Z,19528.4609
2023-04-18T01:36:00.615Z,19526.2305
2023-04-18T01:37:02.162Z,19525.2305
2023-04-18T01:38:03.575Z,19528.6152
2023-04-18T01:39:04.893Z,19528.0000
2023-04-18T01:40:06.349Z,19526.2305
2023-04-18T01:41:07.758Z,19529.1543
2023-04-18T01:42:09.300Z,19520.8457
2023-04-18T01:43:10.643Z,19522.9238
2023-04-18T01:44:12.296Z,19527.6914
2023-04-18T01:45:13.468Z,19523.3848
2023-04-18T01:46:15.019Z,19523.2305
2023-04-18T01:47:16.423Z,19526.3848
2023-04-18T01:48:17.919Z,19523.3848
2023-04-18T01:49:19.216Z,19525.1543
2023-04-18T01:50:20.696Z,19522.3848
2023-04-18T01:51:22.072Z,19528.3086
2023-04-18T01:52:23.633Z,19520.1543
2023-04-18T01:53:24.977Z,19527.4609
2023-04-18T01:54:26.405Z,19528.4609
2023-04-18T01:55:27.794Z,19527.1543
2023-04-18T01:56:29.398Z,19524.9238
2023-04-18T01:57:30.764Z,19526.4609
2023-04-18T01:58:32.159Z,19526.3848
2023-04-18T01:59:33.489Z,19524.7695
2023-04-18T02:00:35.012Z,19530.7695
2023-04-18T02:01:36.433Z,19529.6152
2023-04-18T02:02:38.052Z,19535.3848
2023-04-18T02:03:39.514Z,19534.1543
2023-04-18T02:04:40.727Z,19534.1543
2023-04-18T02:05:42.108Z,19532.0762
2023-04-18T02:06:43.607Z,19534.4609
2023-04-18T02:07:44.994Z,19527.7695
2023-04-18T02:08:46.519Z,19522.3848
2023-04-18T02:09:47.775Z,19527.8457
2023-04-18T02:10:49.261Z,19528.5391
2023-04-18T02:11:50.654Z,19526.6152
2023-04-18T02:12:52.155Z,19527.0000
2023-04-18T02:13:53.597Z,19528.4609
2023-04-18T02:14:54.999Z,19524.4609
2023-04-18T02:15:56.382Z,19521.2305
2023-04-18T02:16:57.950Z,19525.4609
2023-04-18T02:17:59.378Z,19526.7695
2023-04-18T02:19:00.727Z,19527.6152
2023-04-18T02:20:02.161Z,19524.0762
2023-04-18T02:21:03.591Z,19524.5391
2023-04-18T02:22:04.962Z,19519.7695
2023-04-18T02:23:06.451Z,19521.9238
2023-04-18T02:24:07.904Z,19525.5391
2023-04-18T02:25:09.293Z,19528.0762
2023-04-18T02:26:10.693Z,19527.6914
2023-04-18T02:27:12.136Z,19522.4609
2023-04-18T02:28:13.597Z,19522.3848
2023-04-18T02:29:15.036Z,19517.7695
2023-04-18T02:30:16.447Z,19519.3086
2023-04-18T02:31:17.842Z,19525.3086
2023-04-18T02:32:19.279Z,19522.3848
2023-04-18T02:33:20.802Z,19521.6914
2023-04-18T02:34:22.216Z,19527.2305
2023-04-18T02:35:23.641Z,19526.6914
2023-04-18T02:36:25.049Z,19523.0762
2023-04-18T02:37:26.522Z,19526.2305
2023-04-18T02:38:28.301Z,19532.9238
2023-04-18T02:39:29.332Z,19534.0000
2023-04-18T02:40:30.766Z,19529.0762
2023-04-18T02:41:32.199Z,19534.3848
2023-04-18T02:42:33.714Z,19526.3086
2023-04-18T02:43:35.080Z,19527.6152
2023-04-18T02:44:36.762Z,19529.9238
2023-04-18T02:45:37.927Z,19527.8457
2023-04-18T02:46:39.305Z,19529.5391
2023-04-18T02:47:51.127Z,19527.9238
2023-04-18T02:48:42.322Z,19524.7695
2023-04-18T02:49:43.664Z,19524.3848
2023-04-18T02:50:44.992Z,19524.0000
2023-04-18T02:51:46.487Z,19527.0000
2023-04-18T02:52:47.927Z,19529.8457
2023-04-18T02:53:49.394Z,19531.5391
2023-04-18T02:54:50.834Z,19533.7695
2023-04-18T02:55:52.217Z,19529.2305
2023-04-18T02:56:53.649Z,19526.3848
2023-04-18T02:57:55.088Z,19524.8457
2023-04-18T02:58:56.525Z,19512.3086
2023-04-18T02:59:58.010Z,19509.3848
2023-04-18T03:00:59.340Z,19512.8457
2023-04-18T03:02:00.909Z,19515.0000
2023-04-18T03:03:02.344Z,19513.1543
2023-04-18T03:04:03.744Z,19513.8457
2023-04-18T03:05:05.211Z,19505.4609
2023-04-18T03:06:06.564Z,19513.6914
2023-04-18T03:07:08.728Z,19513.1543
2023-04-18T03:08:09.349Z,19509.2305
2023-04-18T03:09:10.838Z,19510.3086
2023-04-18T03:10:12.344Z,19510.2305
2023-04-18T03:11:13.676Z,19508.6914
2023-04-18T03:12:15.046Z,19513.4609
2023-04-18T03:13:16.538Z,19508.1543
2023-04-18T03:14:17.958Z,19505.0000
2023-04-18T03:15:19.403Z,19507.1543
2023-04-18T03:16:20.958Z,19502.2305
2023-04-18T03:17:22.256Z,19502.9238
2023-04-18T03:18:23.605Z,19510.2305
2023-04-18T03:19:25.130Z,19511.6914
2023-04-18T03:20:26.563Z,19508.0000
2023-04-18T03:21:27.964Z,19510.0000
2023-04-18T03:22:29.322Z,19508.6914
2023-04-18T03:23:30.790Z,19509.9238
2023-04-18T03:24:32.293Z,19506.0762
2023-04-18T03:25:33.794Z,19505.9238
2023-04-18T03:26:35.107Z,19501.5391
2023-04-18T03:27:36.510Z,19497.6914
2023-04-18T03:28:37.934Z,19497.9238
2023-04-18T03:29:39.405Z,19502.6152
2023-04-18T03:30:40.802Z,19499.1543
2023-04-18T03:31:42.277Z,19502.4609
2023-04-18T03:32:43.715Z,19497.7695
2023-04-18T03:33:45.083Z,19497.6152
2023-04-18T03:34:46.549Z,19499.3086
2023-04-18T03:35:48.116Z,19504.3086
2023-04-18T03:36:49.354Z,19506.2305
2023-04-18T03:37:50.829Z,19500.1543
2023-04-18T03:38:52.232Z,19503.3086
2023-04-18T03:39:53.725Z,19499.9238
2023-04-18T03:40:55.124Z,19496.2305
2023-04-18T03:41:56.540Z,19495.3086
2023-04-18T03:42:57.927Z,19501.9238
2023-04-18T03:43:59.438Z,19503.2305
2023-04-18T03:45:01.252Z,19506.6152
2023-04-18T03:46:02.373Z,19496.3848
2023-04-18T03:47:03.647Z,19501.4609
2023-04-18T03:48:05.088Z,19496.6152
2023-04-18T03:49:06.429Z,19493.4609
2023-04-18T03:50:07.959Z,19498.3086
2023-04-18T03:51:09.344Z,19496.7695
2023-04-18T03:52:10.787Z,19504.0762
2023-04-18T03:53:12.195Z,19501.1543
2023-04-18T03:54:13.886Z,19500.0000
2023-04-18T03:55:15.376Z,19501.6914
2023-04-18T03:56:16.574Z,19500.5391
2023-04-18T03:57:17.875Z,19504.9238
2023-04-18T03:58:19.313Z,19503.3848
2023-04-18T03:59:20.752Z,19503.2305
2023-04-18T04:00:22.402Z,19499.2305
2023-04-18T04:01:23.682Z,19495.6914
2023-04-18T04:02:25.237Z,19499.0000
2023-04-18T04:03:26.541Z,19497.3848
2023-04-18T04:04:28.016Z,19499.3848
2023-04-18T04:05:29.453Z,19502.6152
2023-04-18T04:06:30.857Z,19504.8457
2023-04-18T04:07:32.244Z,19500.5391
2023-04-18T04:08:33.697Z,19496.1543
2023-04-18T04:09:35.153Z,19499.1543
2023-04-18T04:10:36.547Z,19500.6914
2023-04-18T04:11:38.020Z,19501.5391
2023-04-18T04:12:39.447Z,19498.3848
2023-04-18T04:13:40.818Z,19497.5391
2023-04-18T04:14:42.244Z,19496.3848
2023-04-18T04:15:43.766Z,19503.3848
2023-04-18T04:16:45.259Z,19497.7695
2023-04-18T04:17:46.642Z,19494.6152
2023-04-18T04:18:47.979Z,19499.2305
2023-04-18T04:19:49.416Z,19496.6914
2023-04-18T04:20:50.820Z,19500.8457
2023-04-18T04:21:52.285Z,19498.0762
2023-04-18T04:22:53.682Z,19498.7695
2023-04-18T04:23:55.104Z,19499.3848
2023-04-18T04:24:56.494Z,19502.6152
2023-04-18T04:25:58.094Z,19499.6152
2023-04-18T04:26:59.450Z,19498.3848
2023-04-18T04:28:00.865Z,19494.7695
2023-04-18T04:29:02.227Z,19499.6914
2023-04-18T04:30:03.761Z,19502.5391
2023-04-18T04:31:05.140Z,19501.1543
2023-04-18T04:32:06.746Z,19497.6152
2023-04-18T04:33:07.961Z,19500.0762
2023-04-18T04:34:09.395Z,19496.4609
2023-04-18T04:35:10.762Z,19500.8457
2023-04-18T04:36:12.305Z,19500.4609
2023-04-18T04:37:13.748Z,19499.3848
2023-04-18T04:38:15.196Z,19495.3086
2023-04-18T04:39:16.567Z,19500.0000
2023-04-18T04:40:17.973Z,19498.0762
2023-04-18T04:41:19.410Z,19499.7695
2023-04-18T04:42:20.934Z,19496.8457
2023-04-18T04:43:22.280Z,19500.5391
2023-04-18T04:44:23.744Z,19498.4609
2023-04-18T04:45:25.052Z,19498.6914
2023-04-18T04:46:26.576Z,19498.3848
2023-04-18T04:47:28.094Z,19492.0762
2023-04-18T04:48:29.446Z,19495.1543
2023-04-18T04:49:30.846Z,19498.6152
2023-04-18T04:50:32.307Z,19497.3848
2023-04-18T04:51:33.720Z,19500.0000
2023-04-18T04:52:35.131Z,19495.6914
2023-04-18T04:53:36.575Z,19498.2305
2023-04-18T04:54:38.045Z,19497.6914
2023-04-18T04:55:39.382Z,19492.6152
2023-04-18T04:56:40.903Z,19493.9238
2023-04-18T04:57:42.370Z,19487.6914
2023-04-18T04:58:43.800Z,19489.3848
2023-04-18T04:59:45.145Z,19483.9238
2023-04-18T05:00:46.610Z,19482.9238
2023-04-18T05:01:48.068Z,19481.6914
2023-04-18T05:02:49.617Z,19477.3086
2023-04-18T05:03:51.512Z,19473.2305
2023-04-18T05:04:52.359Z,19472.9238
2023-04-18T05:05:53.739Z,19460.3086
2023-04-18T05:06:55.168Z,19459.7695
2023-04-18T05:07:56.612Z,19463.7695
2023-04-18T05:08:58.068Z,19462.1543
2023-04-18T05:09:59.582Z,19466.5391
2023-04-18T05:11:00.835Z,19459.3848
2023-04-18T05:12:02.328Z,19440.7695
2023-04-18T05:13:03.717Z,19440.9238
2023-04-18T05:14:05.286Z,19449.4609
2023-04-18T05:15:06.623Z,19449.9238
2023-04-18T05:16:08.044Z,19454.3086
2023-04-18T05:17:09.512Z,19457.0000
2023-04-18T05:18:10.914Z,19450.9238
2023-04-18T05:19:12.405Z,19448.6914
2023-04-18T05:20:13.870Z,19449.0762
2023-04-18T05:21:15.249Z,19446.1543
2023-04-18T05:22:16.666Z,19437.7695
2023-04-18T05:23:18.101Z,19438.7695
2023-04-18T05:24:19.496Z,19443.4609
2023-04-18T05:25:20.968Z,19435.3086
2023-04-18T05:26:22.404Z,19421.0000
2023-04-18T05:27:23.799Z,19431.6914
2023-04-18T05:28:25.152Z,19434.4609
2023-04-18T05:29:26.611Z,19440.9238
2023-04-18T05:30:28.047Z,19434.4609
2023-04-18T05:31:29.587Z,19420.2305
2023-04-18T05:32:30.969Z,19416.0000
2023-04-18T05:33:32.399Z,19417.6152
2023-04-18T05:34:33.973Z,19429.5391
2023-04-18T05:35:35.314Z,19438.2305
2023-04-18T05:36:36.722Z,19426.2305
2023-04-18T05:37:38.139Z,19417.6914
2023-04-18T05:38:39.630Z,19402.3848
2023-04-18T05:39:41.042Z,19411.0000
2023-04-18T05:40:42.458Z,19430.3848
2023-04-18T05:41:43.818Z,19434.6914
2023-04-18T05:42:45.347Z,19416.0000
2023-04-18T05:43:54.531Z,19406.4609
2023-04-18T05:44:48.192Z,19411.3848
2023-04-18T05:45:49.537Z,19413.6152
2023-04-18T05:46:50.965Z,19430.0000
2023-04-18T05:47:52.908Z,19427.4609
2023-04-18T05:48:53.995Z,19407.3086
2023-04-18T05:49:55.272Z,19405.0000
2023-04-18T05:50:56.771Z,19407.4609
2023-04-18T05:51:58.928Z,19414.0000
2023-04-18T05:52:59.627Z,19437.2305
2023-04-18T05:54:01.145Z,19421.1543
2023-04-18T05:55:02.453Z,19407.9238
2023-04-18T05:56:03.838Z,19399.4609
2023-04-18T05:57:05.263Z,19401.3848
2023-04-18T05:58:06.879Z,19420.0762
2023-04-18T05:59:08.137Z,19428.5391
2023-04-18T06:00:09.587Z,19408.8457
2023-04-18T06:01:10.981Z,19397.3848
2023-04-18T06:02:12.509Z,19396.2305
2023-04-18T06:03:14.046Z,19409.6152
2023-04-18T06:04:15.640Z,19420.2305
2023-04-18T06:05:16.835Z,19414.0000
2023-04-18T06:06:18.108Z,19402.6914
2023-04-18T06:07:19.579Z,19390.1543
2023-04-18T06:08:20.993Z,19401.7695
2023-04-18T06:09:22.390Z,19409.2305
2023-04-18T06:10:23.924Z,19414.6914
2023-04-18T06:11:25.830Z,19402.0000
2023-04-18T06:12:26.728Z,19393.6152
2023-04-18T06:13:28.337Z,19398.2305
2023-04-18T06:14:29.619Z,19401.0762
2023-04-18T06:15:30.897Z,19420.0000
2023-04-18T06:16:32.513Z,19414.5391
2023-04-18T06:17:33.833Z,19398.0000
2023-04-18T06:18:35.298Z,19386.5391
2023-04-18T06:19:36.687Z,19391.7695
2023-04-18T06:20:38.167Z,19401.4609
2023-04-18T06:21:39.525Z,19404.7695
2023-04-18T06:22:41.108Z,19397.1543
2023-04-18T06:23:42.462Z,19384.8457
2023-04-18T06:24:43.876Z,19389.9238
2023-04-18T06:25:45.257Z,19393.1543
2023-04-18T06:26:46.674Z,19394.8457
2023-04-18T06:27:48.198Z,19389.2305
2023-04-18T06:28:49.900Z,19386.0000
2023-04-18T06:29:51.006Z,19377.0762
2023-04-18T06:30:52.661Z,19388.0762
2023-04-18T06:31:53.889Z,19392.3086
2023-04-18T06:32:55.244Z,19399.3848
2023-04-18T06:33:56.884Z,19391.3848
2023-04-18T06:34:58.114Z,19378.3848
2023-04-18T06:35:59.564Z,19383.8457
2023-04-18T06:37:00.964Z,19398.1543
2023-04-18T06:38:02.453Z,19412.6152
2023-04-18T06:39:03.908Z,19400.5391
2023-04-18T06:40:05.298Z,19378.1543
2023-04-18T06:41:06.692Z,19376.6152
2023-04-18T06:42:08.852Z,19389.9238
2023-04-18T06:43:09.532Z,19407.6914
2023-04-18T06:44:11.078Z,19399.8457
2023-04-18T06:45:12.372Z,19385.6914
2023-04-18T06:46:13.917Z,19375.3086
2023-04-18T06:47:15.176Z,19382.1543
2023-04-18T06:48:16.571Z,19385.2305
2023-04-18T06:49:18.104Z,19393.8457
2023-04-18T06:50:19.538Z,19384.0000
2023-04-18T06:51:20.939Z,19376.7695
2023-04-18T06:52:22.329Z,19377.4609
2023-04-18T06:53:23.748Z,19395.0762
2023-04-18T06:54:25.215Z,19392.8457
2023-04-18T06:55:26.678Z,19383.0000
2023-04-18T06:56:28.131Z,19369.0762
2023-04-18T06:57:29.452Z,19372.6152
2023-04-18T06:58:30.850Z,19375.4609
2023-04-18T06:59:32.351Z,19388.1543
2023-04-18T07:00:33.825Z,19386.6914
2023-04-18T07:01:35.906Z,19374.3086
2023-04-18T07:02:36.695Z,19362.9238
2023-04-18T07:03:38.039Z,19374.1543
2023-04-18T07:04:39.495Z,19373.0000
2023-04-18T07:05:40.977Z,19383.0000
2023-04-18T07:06:42.280Z,19377.4609
2023-04-18T07:07:43.712Z,19364.7695
2023-04-18T07:08:45.090Z,19374.2305
2023-04-18T07:09:46.597Z,19377.7695
2023-04-18T07:10:47.997Z,19384.0000
2023-04-18T07:11:49.415Z,19374.1543
2023-04-18T07:12:50.791Z,19365.0762
2023-04-18T07:13:52.282Z,19364.6914
2023-04-18T07:14:54.354Z,19371.3848
2023-04-18T07:15:55.403Z,19373.3086
2023-04-18T07:16:56.542Z,19369.3848
2023-04-18T07:17:58.870Z,19368.2305
2023-04-18T07:18:59.375Z,19361.7695
2023-04-18T07:20:00.850Z,19361.5391
2023-04-18T07:21:02.299Z,19374.6152
2023-04-18T07:22:03.667Z,19389.2305
2023-04-18T07:23:05.000Z,19378.0000
2023-04-18T07:24:06.511Z,19360.0762
2023-04-18T07:25:07.976Z,19370.3086
2023-04-18T07:26:09.368Z,19371.2305
2023-04-18T07:27:10.849Z,19376.0000
2023-04-18T07:28:12.193Z,19371.0000
2023-04-18T07:29:13.617Z,19362.7695
2023-04-18T07:30:15.064Z,19353.0000
2023-04-18T07:31:16.731Z,19356.1543
2023-04-18T07:32:17.876Z,19360.5391
2023-04-18T07:33:19.323Z,19370.0000
2023-04-18T07:34:20.694Z,19363.3848
2023-04-18T07:35:22.234Z,19355.9238
2023-04-18T07:36:23.644Z,19357.3086
2023-04-18T07:37:25.041Z,19357.8457
2023-04-18T07:38:26.408Z,19373.5391
2023-04-18T07:39:27.846Z,19366.6152
2023-04-18T07:40:29.260Z,19349.3086
2023-04-18T07:41:30.727Z,19349.6152
2023-04-18T07:42:32.074Z,19357.6152
2023-04-18T07:43:33.580Z,19365.9238
2023-04-18T07:44:34.921Z,19360.1543
2023-04-18T07:45:36.409Z,19350.8457
2023-04-18T07:46:37.843Z,19348.8457
2023-04-18T07:47:39.269Z,19353.0000
2023-04-18T07:48:40.682Z,19359.0000
2023-04-18T07:49:42.073Z,19367.3086
2023-04-18T07:50:43.568Z,19363.0000
2023-04-18T07:51:44.918Z,19352.9238
2023-04-18T07:52:46.290Z,19352.0762
2023-04-18T07:53:47.707Z,19351.7695
2023-04-18T07:54:49.108Z,19358.7695
2023-04-18T07:55:50.625Z,19353.7695
2023-04-18T07:56:52.046Z,19342.1543
2023-04-18T07:57:53.456Z,19348.5391
2023-04-18T07:58:54.873Z,19355.4609
2023-04-18T07:59:56.227Z,19370.8457
2023-04-18T08:00:57.772Z,19359.6152
2023-04-18T08:01:59.285Z,19342.8457
2023-04-18T08:03:00.741Z,19348.5391
2023-04-18T08:04:02.346Z,19353.5391
2023-04-18T08:05:03.558Z,19351.3848
2023-04-18T08:06:04.912Z,19357.1543
2023-04-18T08:07:06.251Z,19345.2305
2023-04-18T08:08:07.622Z,19336.4609
2023-04-18T08:09:09.070Z,19342.8457
2023-04-18T08:10:10.476Z,19343.3086
2023-04-18T08:11:11.996Z,19347.6914
2023-04-18T08:12:13.353Z,19344.6152
2023-04-18T08:13:14.780Z,19334.9238
2023-04-18T08:14:16.132Z,19338.9238
2023-04-18T08:15:17.575Z,19342.0000
2023-04-18T08:16:19.033Z,19357.3848
2023-04-18T08:17:20.531Z,19367.5391
2023-04-18T08:18:21.839Z,19352.6914
2023-04-18T08:19:23.285Z,19346.7695
2023-04-18T08:20:24.672Z,19353.4609
2023-04-18T08:21:26.174Z,19366.8457
2023-04-18T08:22:27.551Z,19375.5391
2023-04-18T08:23:28.991Z,19371.4609
2023-04-18T08:24:30.358Z,19354.9238
2023-04-18T08:25:31.892Z,19353.0762
2023-04-18T08:26:33.338Z,19364.6152
2023-04-18T08:27:34.749Z,19379.0000
2023-04-18T08:28:36.065Z,19380.9238
2023-04-18T08:29:37.549Z,19364.6152
2023-04-18T08:30:38.908Z,19354.7695
2023-04-18T08:31:40.429Z,19369.0762
2023-04-18T08:32:41.843Z,19374.4609
2023-04-18T08:33:43.194Z,19385.2305
2023-04-18T08:34:44.579Z,19377.4609
2023-04-18T08:35:46.050Z,19373.0000
2023-04-18T08:36:47.494Z,19357.9238
2023-04-18T08:37:49.010Z,19366.3086
2023-04-18T08:38:50.192Z,19378.1543
2023-04-18T08:39:51.764Z,19390.2305
2023-04-18T08:40:53.130Z,19375.2305
2023-04-18T08:41:54.632Z,19368.7695
2023-04-18T08:42:56.000Z,19355.0762
2023-04-18T08:43:57.393Z,19363.8457
2023-04-18T08:44:58.743Z,19383.6152
2023-04-18T08:46:00.305Z,19390.2305
2023-04-18T08:47:01.837Z,19378.3086
2023-04-18T08:48:03.204Z,19369.9238
2023-04-18T08:49:04.540Z,19356.6914
2023-04-18T08:50:06.061Z,19371.8457
2023-04-18T08:51:07.334Z,19389.7695
2023-04-18T08:52:08.770Z,19392.6152
2023-04-18T08:53:10.284Z,19383.6152
2023-04-18T08:54:11.653Z,19370.9238
2023-04-18T08:55:13.041Z,19369.6914
2023-04-18T08:56:14.427Z,19374.5391
2023-04-18T08:57:15.904Z,19393.1543
2023-04-18T08:58:17.295Z,19393.5391
2023-04-18T08:59:18.691Z,19387.4609
2023-04-18T09:00:20.132Z,19375.4609
2023-04-18T09:01:21.608Z,19371.5391
2023-04-18T09:02:23.138Z,19384.8457
2023-04-18T09:03:24.484Z,19396.0000
2023-04-18T09:04:25.870Z,19390.2305
2023-04-18T09:05:27.374Z,19377.7695
2023-04-18T09:06:28.684Z,19358.5391
2023-04-18T09:07:30.122Z,19352.0762
2023-04-18T09:08:31.533Z,19380.5391
2023-04-18T09:09:32.956Z,19401.3086
2023-04-18T09:10:34.393Z,19381.9238
2023-04-18T09:11:35.802Z,19375.8457
2023-04-18T09:12:37.285Z,19358.9238
2023-04-18T09:13:38.776Z,19364.2305
2023-04-18T09:14:40.073Z,19387.5391
2023-04-18T09:15:42.325Z,19400.7695
2023-04-18T09:16:42.918Z,19386.6914
2023-04-18T09:17:44.337Z,19368.3086
2023-04-18T09:18:45.772Z,19357.7695
2023-04-18T09:19:47.453Z,19370.5391
2023-04-18T09:20:48.543Z,19385.3086
2023-04-18T09:21:50.038Z,19402.3086
2023-04-18T09:22:51.411Z,19387.5391
2023-04-18T09:23:52.944Z,19377.0762
2023-04-18T09:24:54.322Z,19361.0762
2023-04-18T09:25:55.723Z,19378.0762
2023-04-18T09:26:57.125Z,19389.4609
2023-04-18T09:27:58.551Z,19400.2305
2023-04-18T09:28:59.998Z,19392.0762
2023-04-18T09:30:01.471Z,19379.4609
2023-04-18T09:31:02.891Z,19373.6152
2023-04-18T09:32:04.227Z,19373.3848
2023-04-18T09:33:05.790Z,19386.5391
2023-04-18T09:34:07.149Z,19401.3086
2023-04-18T09:35:08.557Z,19393.6152
2023-04-18T09:36:10.057Z,19382.1543
2023-04-18T09:37:11.559Z,19366.6914
2023-04-18T09:38:12.900Z,19353.1543
2023-04-18T09:39:14.455Z,19379.0762
2023-04-18T09:40:15.878Z,19398.7695
2023-04-18T09:41:19.898Z,19396.6914
2023-04-18T09:42:18.578Z,19376.3086
2023-04-18T09:43:20.042Z,19372.1543
2023-04-18T09:44:21.477Z,19371.6152
2023-04-18T09:45:22.873Z,19387.0000
2023-04-18T09:46:24.265Z,19403.5391
2023-04-18T09:47:25.797Z,19388.5391
2023-04-18T09:48:27.214Z,19369.3848
2023-04-18T09:49:28.607Z,19356.3848
2023-04-18T09:50:30.031Z,19374.7695
2023-04-18T09:51:31.344Z,19388.0000
2023-04-18T09:52:32.752Z,19401.2305
2023-04-18T09:53:34.226Z,19387.3848
2023-04-18T09:54:35.713Z,19376.3086
2023-04-18T09:55:37.135Z,19362.3086
2023-04-18T09:56:38.574Z,19371.0762
2023-04-18T09:57:40.021Z,19379.4609
2023-04-18T09:58:41.318Z,19398.2305
2023-04-18T09:59:42.793Z,19388.1543
2023-04-18T10:00:46.363Z,19373.1543
2023-04-18T10:01:45.626Z,19372.9238
2023-04-18T10:02:47.120Z,19379.8457
2023-04-18T10:03:48.665Z,19392.7695
2023-04-18T10:04:49.951Z,19399.6152
2023-04-18T10:05:51.424Z,19385.6152
2023-04-18T10:06:53.446Z,19374.6914
2023-04-18T10:07:54.085Z,19359.4609
2023-04-18T10:08:55.587Z,19375.4609
2023-04-18T10:09:57.004Z,19392.9238
2023-04-18T10:10:58.417Z,19395.7695
2023-04-18T10:11:59.803Z,19379.6914
2023-04-18T10:13:01.226Z,19364.9238
2023-04-18T10:14:02.596Z,19358.0762
2023-04-18T10:15:04.136Z,19374.7695
2023-04-18T10:16:05.989Z,19396.0000
2023-04-18T10:17:06.963Z,19387.3086
2023-04-18T10:18:08.339Z,19371.0762
2023-04-18T10:19:09.892Z,19360.9238
2023-04-18T10:20:11.209Z,19362.7695
2023-04-18T10:21:12.597Z,19378.3848
2023-04-18T10:22:14.043Z,19391.1543
2023-04-18T10:23:15.425Z,19393.1543
2023-04-18T10:24:16.803Z,19372.7695
2023-04-18T10:25:18.337Z,19360.0000
2023-04-18T10:26:19.734Z,19370.4609
2023-04-18T10:27:21.099Z,19376.0762
2023-04-18T10:28:23.408Z,19389.0000
2023-04-18T10:29:23.964Z,19389.6914
2023-04-18T10:30:25.465Z,19369.9238
2023-04-18T10:31:27.160Z,19353.3086
2023-04-18T10:32:28.317Z,19358.9238
2023-04-18T10:33:31.921Z,19379.3086
2023-04-18T10:34:31.057Z,19393.6152
2023-04-18T10:35:32.565Z,19390.7695
2023-04-18T10:36:33.950Z,19370.9238
2023-04-18T10:37:35.336Z,19359.4609
2023-04-18T10:38:36.714Z,19367.3848
2023-04-18T10:39:38.177Z,19379.3086
2023-04-18T10:40:39.559Z,19390.5391
2023-04-18T10:41:41.042Z,19382.0000
2023-04-18T10:42:42.394Z,19357.6152
2023-04-18T10:43:45.471Z,19354.3848
2023-04-18T10:55:55.265Z,19368.0000
2023-04-18T10:56:57.614Z,19350.5723
2023-04-18T10:57:58.877Z,19322.7695
2023-04-18T10:59:00.411Z,19330.4609
2023-04-18T11:00:01.965Z,19318.5391
2023-04-18T11:01:03.334Z,19308.0000
2023-04-18T11:02:04.771Z,19312.9238
2023-04-18T11:03:06.245Z,19336.7695
2023-04-18T11:04:07.749Z,19346.8457
2023-04-18T11:05:08.970Z,19356.0762
2023-04-18T11:06:10.380Z,19346.0762
2023-04-18T11:07:11.716Z,19334.1543
2023-04-18T11:08:13.195Z,19324.4609
2023-04-18T11:09:14.788Z,19342.4609
2023-04-18T11:10:16.122Z,19353.8457
2023-04-18T11:11:17.567Z,19360.3848
2023-04-18T11:12:18.863Z,19351.7695
2023-04-18T11:13:20.325Z,19335.1543
2023-04-18T11:14:21.758Z,19342.3848
2023-04-18T11:15:23.161Z,19351.3086
2023-04-18T11:16:24.610Z,19365.3848
2023-04-18T11:17:26.164Z,19372.9238
2023-04-18T11:18:27.493Z,19363.0000
2023-04-18T11:19:28.858Z,19340.9238
2023-04-18T11:20:30.309Z,19345.1543
2023-04-18T11:21:31.698Z,19353.7695
2023-04-18T11:22:33.202Z,19367.0000
2023-04-18T11:23:34.604Z,19371.9238
2023-04-18T11:24:35.981Z,19361.3086
2023-04-18T11:25:37.340Z,19338.3848
2023-04-18T11:26:38.817Z,19343.1543
2023-04-18T11:27:40.241Z,19346.3848
2023-04-18T11:28:41.684Z,19363.0000
2023-04-18T11:29:43.113Z,19371.6914
2023-04-18T11:30:44.496Z,19367.3848
2023-04-18T11:31:46.001Z,19350.7695
2023-04-18T11:32:47.482Z,19357.3086